Time;durP1;ratioP1;P1;durP2;ratioP2;P2;SDS_P1;SDS_P2;PMS_P1;PMS_P2;Temp;Humidity;BMP_temperature;BMP_pressure;BME280_temperature;BME280_humidity;BME280_pressure;Samples;Min_cycle;Max_cycle;Signal;HPM_P1;HPM_P2
2022/08/01 06:41:54;;;;;;;3.70;1.60;;;;;;;21.85;57.73;96711.00;2099630;27;20546;-68
2022/08/01 06:42:56;;;;;;;4.05;1.92;;;;;;;21.98;57.50;96713.41;2090524;28;20195;-68
2022/08/01 06:43:59;;;;;;;2.97;1.30;;;;;;;22.12;57.37;96709.50;2090770;28;20404;-68
2022/08/01 06:45:05;;;;;;;4.45;1.70;;;;;;;22.03;56.86;96707.69;2091355;28;20203;-68
2022/08/01 06:46:06;;;;;;;3.75;1.60;;;;;;;21.90;57.26;96721.22;2093691;28;20678;-68
2022/08/01 06:47:08;;;;;;;3.85;1.58;;;;;;;22.03;57.17;96720.97;2089953;28;20191;-68
2022/08/01 06:48:09;;;;;;;4.50;1.73;;;;;;;22.30;56.80;96714.13;2082860;28;20196;-68
2022/08/01 06:49:11;;;;;;;3.85;1.50;;;;;;;22.31;56.49;96721.97;2084869;28;20200;-68
2022/08/01 06:50:14;;;;;;;3.08;1.50;;;;;;;22.43;56.51;96720.00;2085012;28;20503;-69
2022/08/01 06:51:19;;;;;;;4.05;1.50;;;;;;;22.60;56.12;96718.47;2082191;28;20196;-68
2022/08/01 07:12:15;;;;;;;3.50;1.70;;;;;;;23.28;54.65;96719.31;2088977;27;20557;-68
2022/08/01 07:13:21;;;;;;;2.42;1.40;;;;;;;23.46;54.28;96716.69;2078661;28;20193;-68
2022/08/01 07:14:22;;;;;;;3.55;1.90;;;;;;;23.60;53.79;96718.88;2078733;28;20288;-68
2022/08/01 07:15:26;;;;;;;5.95;1.67;;;;;;;23.85;53.36;96719.16;2078272;28;20197;-68
2022/08/01 07:16:27;;;;;;;5.18;1.50;;;;;;;24.12;52.51;96718.31;2078687;28;20189;-68
2022/08/01 07:17:29;;;;;;;3.55;1.63;;;;;;;24.25;52.23;96722.41;2076948;28;20235;-68
2022/08/01 07:18:31;;;;;;;3.58;1.25;;;;;;;23.98;52.05;96713.47;2078544;28;20714;-69
2022/08/01 07:19:33;;;;;;;2.92;1.40;;;;;;;23.81;52.94;96721.28;2078560;28;20236;-69
2022/08/01 07:20:39;;;;;;;5.82;1.65;;;;;;;23.63;53.32;96718.56;2078513;28;20560;-69
2022/08/01 07:21:53;;;;;;;3.90;1.50;;;;;;;23.36;53.81;96723.91;2077460;28;20196;-69
2022/08/01 07:22:54;;;;;;;6.25;1.40;;;;;;;23.48;53.73;96718.22;2078616;28;20197;-69
2022/08/01 07:23:57;;;;;;;4.00;1.48;;;;;;;23.67;53.32;96721.78;2078546;28;20530;-69
2022/08/01 07:24:59;;;;;;;3.70;1.70;;;;;;;23.87;53.10;96721.66;2078643;28;20203;-69
2022/08/01 07:26:02;;;;;;;4.40;1.45;;;;;;;23.99;53.10;96727.66;2078641;28;20197;-69
2022/08/01 07:27:04;;;;;;;4.32;1.40;;;;;;;24.12;52.62;96722.78;2077625;28;20280;-69
2022/08/01 07:28:25;;;;;;;3.90;1.73;;;;;;;24.75;51.30;96718.38;2077790;28;20208;-69
2022/08/01 07:29:27;;;;;;;2.67;1.30;;;;;;;24.99;50.50;96711.50;2078265;28;20201;-69
2022/08/01 07:30:29;;;;;;;2.42;1.50;;;;;;;24.60;50.79;96721.53;2078271;28;20219;-69
2022/08/01 07:31:31;;;;;;;3.40;1.30;;;;;;;24.62;51.25;96719.56;2078079;28;20216;-69
2022/08/01 07:51:24;;;;;;;2.85;1.70;;;;;;;24.69;50.15;96700.28;2085942;28;20555;-69
2022/08/01 07:52:26;;;;;;;2.28;1.30;;;;;;;24.76;50.30;96712.84;2079272;28;20218;-69
2022/08/01 07:53:28;;;;;;;4.15;2.00;;;;;;;24.71;50.48;96708.97;2076567;28;20228;-69
2022/08/01 07:54:31;;;;;;;4.60;1.85;;;;;;;24.45;50.57;96712.41;2074496;28;20206;-69
2022/08/01 07:55:34;;;;;;;2.80;1.70;;;;;;;24.42;50.87;96715.41;2074514;28;20197;-69
2022/08/01 07:56:35;;;;;;;7.65;1.55;;;;;;;24.40;51.08;96707.53;2072638;28;20201;-69
2022/08/01 07:57:38;;;;;;;4.00;1.55;;;;;;;24.25;51.51;96707.25;2068139;28;20229;-69
2022/08/01 07:58:39;;;;;;;3.63;1.90;;;;;;;24.41;51.29;96711.06;2065800;28;20203;-69
2022/08/01 07:59:41;;;;;;;3.13;1.65;;;;;;;24.72;50.86;96710.66;2066654;28;20194;-69
2022/08/01 08:00:43;;;;;;;2.25;1.20;;;;;;;25.00;50.00;96710.50;2068411;28;20208;-69
2022/08/01 08:01:44;;;;;;;5.18;1.67;;;;;;;25.14;50.06;96709.94;2067772;28;20205;-69
2022/08/01 08:02:48;;;;;;;2.95;1.70;;;;;;;25.45;49.27;96712.09;2065053;28;20400;-70
2022/08/01 08:03:50;;;;;;;6.28;1.52;;;;;;;25.16;49.54;96709.78;2063149;28;20702;-69
2022/08/01 08:04:51;;;;;;;11.13;2.00;;;;;;;24.96;50.01;96709.97;2063886;28;20694;-69
2022/08/01 08:05:53;;;;;;;5.57;1.67;;;;;;;24.67;50.64;96705.78;2063835;28;20206;-69
2022/08/01 08:07:00;;;;;;;4.03;1.80;;;;;;;24.90;50.44;96708.78;2064331;28;20207;-69
2022/08/01 08:08:05;;;;;;;3.95;1.65;;;;;;;25.11;49.84;96710.22;2064764;28;20206;-69
2022/08/01 08:09:06;;;;;;;3.55;1.67;;;;;;;25.27;49.38;96709.50;2062406;28;20205;-69
2022/08/01 08:10:08;;;;;;;5.15;1.80;;;;;;;25.49;48.59;96705.44;2063498;28;20227;-69
2022/08/01 08:11:10;;;;;;;2.40;1.55;;;;;;;25.81;48.28;96708.38;2068139;28;20564;-69
2022/08/01 08:12:12;;;;;;;4.80;1.30;;;;;;;25.94;48.11;96711.44;2069249;28;20681;-69
2022/08/01 08:13:13;;;;;;;3.60;1.67;;;;;;;25.91;47.99;96707.25;2071687;28;20202;-69
2022/08/01 08:14:16;;;;;;;5.93;2.30;;;;;;;26.01;47.86;96699.06;2073826;28;20218;-69
2022/08/01 08:15:17;;;;;;;4.25;1.98;;;;;;;26.06;47.69;96706.66;2072271;28;20216;-69
2022/08/01 08:16:20;;;;;;;2.45;1.52;;;;;;;26.01;47.49;96698.25;2074004;28;20204;-69
2022/08/01 08:17:22;;;;;;;3.30;2.20;;;;;;;26.44;46.82;96706.19;2073239;28;20303;-69
2022/08/01 08:18:24;;;;;;;5.93;1.83;;;;;;;26.62;46.67;96709.53;2073503;28;20189;-69
2022/08/01 08:19:25;;;;;;;3.50;1.98;;;;;;;26.73;46.35;96703.03;2072396;28;20225;-69
2022/08/01 08:20:38;;;;;;;5.10;2.00;;;;;;;26.74;46.46;96707.38;2069363;28;20660;-69
2022/08/01 08:21:40;;;;;;;3.58;2.13;;;;;;;27.00;46.12;96701.81;2071864;28;20576;-69
2022/08/01 08:42:12;;;;;;;3.95;2.40;;;;;;;27.28;44.67;96701.38;2084554;28;20573;-68
2022/08/01 08:43:15;;;;;;;3.42;2.08;;;;;;;26.86;45.75;96694.47;2075482;28;20190;-69
2022/08/01 08:44:18;;;;;;;6.57;2.72;;;;;;;26.75;45.88;96692.97;2075573;28;20200;-68
2022/08/01 08:45:19;;;;;;;5.10;2.85;;;;;;;26.69;46.11;96690.94;2074853;28;20198;-69
2022/08/01 08:46:43;;;;;;;5.80;3.10;;;;;;;26.76;45.79;96696.50;2074505;28;20204;-69
2022/08/01 08:47:46;;;;;;;4.50;2.75;;;;;;;27.26;45.01;96697.22;2074950;28;20232;-69
2022/08/01 08:48:47;;;;;;;6.55;2.65;;;;;;;27.27;44.73;96686.31;2076843;28;20260;-69
2022/08/01 08:49:53;;;;;;;9.55;3.35;;;;;;;27.30;44.71;96699.38;2077827;28;20224;-69
2022/08/01 08:50:57;;;;;;;6.90;3.08;;;;;;;27.02;45.04;96690.91;2074677;28;20580;-70
2022/08/01 08:52:00;;;;;;;4.53;2.70;;;;;;;27.41;44.38;96695.50;2072689;28;20194;-69
2022/08/01 08:53:02;;;;;;;4.07;2.83;;;;;;;27.77;44.00;96707.59;2075667;28;20661;-69
2022/08/01 08:54:10;;;;;;;3.90;2.80;;;;;;;27.79;43.84;96698.34;2076179;28;20300;-69
2022/08/01 08:55:14;;;;;;;5.72;2.78;;;;;;;27.76;43.86;96704.09;2077354;28;20261;-69
2022/08/01 08:56:16;;;;;;;4.75;2.90;;;;;;;27.66;43.49;96698.09;2077262;28;20193;-69
2022/08/01 08:57:20;;;;;;;5.90;2.88;;;;;;;28.01;43.17;96710.16;2074920;28;20248;-69
2022/08/01 08:58:25;;;;;;;4.47;2.65;;;;;;;28.24;42.35;96703.13;2075828;28;20548;-69
2022/08/01 08:59:32;;;;;;;5.75;3.00;;;;;;;28.18;42.63;96697.47;2074949;28;20703;-69
2022/08/01 09:00:35;;;;;;;6.22;3.20;;;;;;;27.91;43.35;96700.63;2074131;28;20817;-68
2022/08/01 09:01:37;;;;;;;6.38;3.80;;;;;;;27.60;43.50;96696.94;2076184;28;20220;-69
2022/08/01 09:02:43;;;;;;;5.82;3.88;;;;;;;27.59;43.33;96700.66;2075586;28;20233;-69
2022/08/01 09:03:44;;;;;;;6.15;3.15;;;;;;;27.67;43.51;96697.09;2075585;28;20289;-69
2022/08/01 09:04:48;;;;;;;4.38;3.20;;;;;;;28.17;42.81;96703.84;2075650;28;20201;-69
2022/08/01 09:05:49;;;;;;;5.28;3.42;;;;;;;28.27;42.42;96706.31;2075075;28;20205;-69
2022/08/01 09:06:51;;;;;;;8.88;2.50;;;;;;;28.24;42.78;96705.81;2074644;28;20200;-69
2022/08/01 09:07:53;;;;;;;5.57;2.90;;;;;;;27.98;42.76;96699.75;2075738;28;20217;-69
2022/08/01 09:08:54;;;;;;;6.85;3.58;;;;;;;28.49;42.06;96701.09;2074087;28;20886;-69
2022/08/01 09:09:56;;;;;;;7.38;3.20;;;;;;;27.73;42.37;96700.91;2075755;28;20563;-69
2022/08/01 09:10:57;;;;;;;4.38;3.13;;;;;;;27.16;43.69;96706.28;2075433;28;20201;-69
2022/08/01 09:11:59;;;;;;;7.35;2.92;;;;;;;26.86;44.34;96706.00;2071976;28;20216;-69
2022/08/01 09:13:12;;;;;;;4.13;2.85;;;;;;;27.16;43.99;96705.44;2074727;28;20197;-69
2022/08/01 09:14:26;;;;;;;9.05;3.42;;;;;;;26.86;44.44;96707.88;2075143;28;20200;-68
2022/08/01 09:15:50;;;;;;;5.53;2.80;;;;;;;26.76;44.89;96709.88;2074769;28;20608;-69
2022/08/01 09:17:12;;;;;;;4.05;2.63;;;;;;;27.41;44.18;96710.78;2076439;28;20204;-69
2022/08/01 09:18:34;;;;;;;3.60;2.72;;;;;;;27.82;43.49;96706.06;2076654;28;20224;-69
2022/08/01 09:19:36;;;;;;;9.77;3.08;;;;;;;27.98;42.28;96706.97;2076797;28;20578;-66
2022/08/01 09:20:41;;;;;;;5.38;3.35;;;;;;;27.92;42.32;96705.00;2074087;28;20224;-66
2022/08/01 09:21:55;;;;;;;4.40;2.45;;;;;;;27.33;43.59;96698.22;2075397;28;20197;-67
2022/08/01 09:22:58;;;;;;;5.60;2.92;;;;;;;27.15;44.13;96711.84;2075954;28;20853;-66
2022/08/01 09:24:05;;;;;;;5.68;2.95;;;;;;;26.69;45.20;96709.66;2076800;28;20196;-67
2022/08/01 09:25:09;;;;;;;4.50;3.28;;;;;;;26.94;44.74;96710.50;2074191;28;20201;-66
2022/08/01 09:26:17;;;;;;;8.25;3.88;;;;;;;27.25;44.05;96707.13;2076089;28;20437;-67
2022/08/01 09:27:25;;;;;;;3.80;2.83;;;;;;;27.46;43.59;96706.53;2074832;28;20221;-67
2022/08/01 09:28:29;;;;;;;4.50;3.03;;;;;;;27.72;43.29;96705.44;2076393;28;20824;-66
2022/08/01 09:29:33;;;;;;;4.78;2.67;;;;;;;28.09;42.78;96703.09;2073378;28;20209;-67
2022/08/01 09:30:39;;;;;;;4.40;3.05;;;;;;;28.14;42.51;96712.28;2077362;28;20233;-67
2022/08/01 09:31:43;;;;;;;5.65;2.53;;;;;;;28.26;42.41;96709.19;2077723;28;20264;-67
2022/08/01 09:33:02;;;;;;;4.55;2.97;;;;;;;28.52;42.33;96711.50;2075064;28;20616;-67
2022/08/01 09:34:30;;;;;;;5.53;2.95;;;;;;;28.84;40.90;96707.72;2074508;28;20213;-67
2022/08/01 09:35:37;;;;;;;3.88;2.40;;;;;;;28.46;41.93;96709.53;2074778;28;20572;-67
2022/08/01 09:36:48;;;;;;;4.88;2.70;;;;;;;28.22;42.55;96710.56;2075650;28;20269;-67
2022/08/01 09:37:49;;;;;;;4.47;3.15;;;;;;;28.15;41.86;96711.25;2074518;28;20221;-67
2022/08/01 09:38:53;;;;;;;5.80;3.10;;;;;;;27.79;42.95;96702.88;2075083;28;20597;-67
2022/08/01 09:39:55;;;;;;;4.32;3.03;;;;;;;27.52;43.42;96715.75;2073498;28;20658;-67
2022/08/01 09:41:00;;;;;;;5.43;2.83;;;;;;;27.27;44.14;96713.13;2077228;28;20197;-67
2022/08/01 09:42:24;;;;;;;3.85;3.10;;;;;;;27.33;43.95;96708.94;2076497;28;20627;-67
2022/08/01 09:43:31;;;;;;;8.02;3.58;;;;;;;27.86;42.94;96712.75;2072901;28;20194;-67
2022/08/01 09:44:40;;;;;;;6.15;3.50;;;;;;;28.11;42.41;96723.38;2075107;28;20538;-67
2022/08/01 09:45:45;;;;;;;9.27;2.97;;;;;;;27.83;43.14;96710.41;2075851;28;20193;-62
2022/08/01 09:46:59;;;;;;;6.10;3.25;;;;;;;27.82;43.35;96714.13;2075638;28;20193;-62
2022/08/01 10:06:21;;;;;;;4.63;2.80;;;;;;;28.49;41.67;96703.78;2086627;28;20569;-62
2022/08/01 10:07:25;;;;;;;4.82;2.53;;;;;;;28.30;42.01;96714.03;2073277;28;20231;-62
2022/08/01 10:08:44;;;;;;;3.03;1.95;;;;;;;28.71;40.95;96707.50;2070294;28;20198;-62
2022/08/01 10:09:47;;;;;;;5.82;2.75;;;;;;;28.17;41.73;96705.72;2070614;28;20197;-62
2022/08/01 10:11:11;;;;;;;3.80;2.67;;;;;;;28.33;41.52;96710.16;2070710;28;20229;-62
2022/08/01 10:12:16;;;;;;;2.95;2.13;;;;;;;28.48;40.30;96708.34;2070229;28;20224;-62
2022/08/01 10:13:18;;;;;;;3.47;1.95;;;;;;;27.80;41.19;96709.94;2070070;28;20284;-62
2022/08/01 10:14:20;;;;;;;3.40;1.80;;;;;;;28.28;40.94;96702.63;2070769;28;20209;-61
2022/08/01 10:15:23;;;;;;;3.00;1.73;;;;;;;28.95;39.77;96706.44;2070721;28;20284;-62
2022/08/01 10:16:38;;;;;;;3.55;1.77;;;;;;;28.96;39.46;96702.75;2070642;28;20549;-62
2022/08/01 10:17:45;;;;;;;2.67;1.52;;;;;;;28.75;39.58;96700.75;2068815;28;20240;-63
2022/08/01 10:18:53;;;;;;;2.55;1.60;;;;;;;28.21;40.80;96695.47;2070750;28;20205;-62
2022/08/01 10:19:59;;;;;;;2.30;1.60;;;;;;;28.39;40.76;96698.69;2070433;28;20240;-63
2022/08/01 10:21:02;;;;;;;3.95;1.73;;;;;;;28.95;40.34;96702.91;2070783;28;20201;-62
2022/08/01 10:22:13;;;;;;;1.95;1.20;;;;;;;28.61;40.59;96702.34;2069891;28;20281;-62
2022/08/01 10:23:17;;;;;;;2.10;1.40;;;;;;;29.29;40.03;96697.06;2070485;28;20201;-62
2022/08/01 10:24:22;;;;;;;2.20;1.45;;;;;;;28.98;40.23;96691.81;2070608;28;20189;-62
2022/08/01 10:25:28;;;;;;;3.42;1.58;;;;;;;29.58;39.51;96706.09;2070508;28;20200;-62
2022/08/01 10:26:47;;;;;;;6.00;1.20;;;;;;;30.22;38.28;96695.66;2070023;28;20664;-62
2022/08/01 10:27:51;;;;;;;2.33;1.42;;;;;;;30.36;37.13;96700.19;2069459;28;20234;-62
2022/08/01 10:28:55;;;;;;;4.75;1.80;;;;;;;30.24;37.90;96697.16;2070521;28;20209;-67
2022/08/01 10:30:04;;;;;;;4.18;1.73;;;;;;;30.42;37.77;96694.03;2070604;28;20566;-67
2022/08/01 10:31:22;;;;;;;1.88;1.02;;;;;;;29.84;38.23;96694.00;2068883;28;20561;-67
2022/08/01 10:32:34;;;;;;;2.78;1.50;;;;;;;29.53;39.00;96694.25;2069924;28;20252;-67
2022/08/01 10:33:39;;;;;;;6.17;1.43;;;;;;;29.05;40.16;96695.44;2070601;28;20202;-67
2022/08/01 10:34:54;;;;;;;2.50;1.35;;;;;;;28.34;41.18;96685.78;2069888;28;20434;-68
2022/08/01 10:35:57;;;;;;;6.25;1.63;;;;;;;27.92;42.48;96699.63;2070597;28;20634;-67
2022/08/01 10:36:58;;;;;;;2.35;1.10;;;;;;;28.37;41.93;96689.13;2070152;28;20229;-67
2022/08/01 10:38:01;;;;;;;7.10;1.83;;;;;;;28.46;41.72;96678.13;2069152;28;20247;-68
2022/08/01 10:39:07;;;;;;;1.98;1.20;;;;;;;28.55;41.48;96686.97;2070688;28;20573;-68
2022/08/01 10:40:12;;;;;;;5.10;1.50;;;;;;;29.13;40.04;96686.44;2070583;28;20201;-67
2022/08/01 10:41:33;;;;;;;2.70;1.30;;;;;;;29.46;39.44;96691.47;2069907;28;20489;-67
2022/08/01 10:42:35;;;;;;;2.70;1.70;;;;;;;29.89;38.95;96691.63;2070015;28;20225;-67
2022/08/01 10:43:36;;;;;;;3.05;1.20;;;;;;;29.99;37.67;96685.91;2070574;28;20200;-67
2022/08/01 10:44:39;;;;;;;3.55;1.23;;;;;;;29.76;38.22;96684.19;2070665;28;20209;-67
2022/08/01 10:45:43;;;;;;;1.83;1.13;;;;;;;30.28;37.71;96692.22;2070583;28;20198;-67
2022/08/01 10:46:50;;;;;;;2.42;1.23;;;;;;;30.32;37.11;96685.41;2070425;28;20194;-68
2022/08/01 10:48:02;;;;;;;3.40;1.50;;;;;;;30.44;37.40;96693.81;2070084;28;20229;-67
2022/08/01 10:49:21;;;;;;;2.17;1.27;;;;;;;30.26;37.48;96689.72;2069698;28;20209;-67
2022/08/01 10:50:34;;;;;;;1.67;1.05;;;;;;;30.78;37.28;96692.28;2070315;28;20983;-68
2022/08/01 10:51:39;;;;;;;2.05;1.20;;;;;;;31.04;36.80;96686.22;2070091;28;20201;-68
2022/08/01 10:53:20;;;;;;;2.60;1.20;;;;;;;31.52;35.68;96698.97;2069890;28;20222;-67
2022/08/01 10:54:39;;;;;;;2.60;1.40;;;;;;;30.96;35.86;96681.00;2069741;28;20206;-67
2022/08/01 10:55:56;;;;;;;3.23;1.40;;;;;;;31.36;34.66;96683.97;2070264;28;20467;-68
2022/08/01 10:57:00;;;;;;;5.90;1.20;;;;;;;30.89;35.07;96682.81;2069048;28;20482;-67
2022/08/01 10:58:07;;;;;;;2.10;1.23;;;;;;;30.92;35.44;96685.13;2070622;28;20896;-67
2022/08/01 10:59:27;;;;;;;4.70;1.30;;;;;;;30.26;36.47;96670.06;2070195;28;20466;-68
2022/08/01 11:01:14;;;;;;;2.37;1.47;;;;;;;29.64;38.28;96670.38;2069263;28;20419;-63
2022/08/01 11:02:28;;;;;;;2.63;1.50;;;;;;;30.00;38.25;96674.13;2069345;28;20463;-63
2022/08/01 11:03:35;;;;;;;1.97;1.30;;;;;;;29.91;38.51;96675.28;2069591;28;20430;-63
2022/08/01 11:05:21;;;;;;;2.10;1.30;;;;;;;29.73;39.01;96673.78;2069154;28;20435;-63
2022/08/01 11:06:35;;;;;;;4.53;1.60;;;;;;;29.23;39.55;96672.72;2070260;28;20470;-63
2022/08/01 11:07:43;;;;;;;4.07;2.07;;;;;;;29.31;38.89;96680.72;2069271;28;20462;-63
2022/08/01 11:08:51;;;;;;;2.90;1.30;;;;;;;29.57;38.15;96672.19;2070009;28;20438;-63
2022/08/01 11:10:14;;;;;;;2.23;1.40;;;;;;;30.17;37.63;96681.94;2070253;28;20438;-63
2022/08/01 11:11:16;;;;;;;2.53;1.60;;;;;;;30.32;36.70;96677.34;2070299;28;20420;-63
2022/08/01 11:12:19;;;;;;;2.00;1.30;;;;;;;30.27;36.76;96671.69;2069808;28;20483;-63
2022/08/01 11:14:12;;;;;;;2.17;1.57;;;;;;;31.03;35.57;96668.41;2069940;28;20457;-63
2022/08/01 11:15:15;;;;;;;3.25;1.15;;;;;;;30.89;35.42;96670.19;2069557;28;20816;-63
2022/08/01 11:16:35;;;;;;;3.03;1.40;;;;;;;31.04;35.69;96678.13;2069684;28;20190;-63
2022/08/01 11:17:49;;;;;;;1.70;1.20;;;;;;;30.68;35.62;96668.34;2064689;28;20466;-63
2022/08/01 11:18:55;;;;;;;2.27;1.40;;;;;;;30.27;36.67;96664.47;2063860;28;20723;-63
2022/08/01 11:20:24;;;;;;;6.00;1.33;;;;;;;30.92;36.34;96669.78;2064874;28;20424;-62
2022/08/01 11:21:52;;;;;;;3.30;1.13;;;;;;;30.68;36.51;96665.66;2064132;28;20446;-63
2022/08/01 11:23:06;;;;;;;2.70;1.27;;;;;;;30.74;36.45;96664.88;2063795;28;20784;-63
2022/08/01 11:24:07;;;;;;;2.40;1.20;;;;;;;31.47;35.18;96668.25;2064310;28;20916;-63
2022/08/01 11:25:10;;;;;;;2.30;1.33;;;;;;;31.29;35.57;96668.78;2064713;28;20451;-63
2022/08/01 11:26:15;;;;;;;2.00;1.40;;;;;;;31.83;34.65;96669.88;2064769;28;20483;-63
2022/08/01 11:27:26;;;;;;;1.60;1.10;;;;;;;31.31;34.19;96664.84;2064355;28;20459;-63
2022/08/01 11:28:31;;;;;;;2.87;1.47;;;;;;;30.99;34.55;96653.63;2065044;28;20455;-63
2022/08/01 11:29:37;;;;;;;2.33;1.40;;;;;;;30.71;35.10;96656.34;2064330;28;20440;-63
2022/08/01 11:30:39;;;;;;;1.83;1.10;;;;;;;31.06;35.12;96664.50;2063954;28;20428;-63
2022/08/01 11:31:40;;;;;;;2.10;1.37;;;;;;;30.98;34.63;96660.06;2063497;28;20443;-63
2022/08/01 11:32:49;;;;;;;5.50;2.00;;;;;;;30.49;35.66;96660.94;2064392;28;20456;-63
2022/08/01 11:34:11;;;;;;;2.93;1.07;;;;;;;29.82;36.34;96658.38;2064650;28;20428;-63
2022/08/01 11:35:17;;;;;;;2.27;1.27;;;;;;;29.83;36.77;96643.06;2064779;28;20447;-62
2022/08/01 11:36:22;;;;;;;2.90;1.43;;;;;;;29.78;36.74;96646.34;2072216;28;20434;-63
2022/08/01 11:37:44;;;;;;;1.73;0.93;;;;;;;29.52;36.85;96646.84;2068005;28;20452;-63
2022/08/01 11:38:57;;;;;;;1.73;1.20;;;;;;;30.24;36.18;96656.75;2064684;28;20435;-63
2022/08/01 11:40:26;;;;;;;2.80;1.20;;;;;;;30.83;34.73;96653.94;2064299;28;20431;-63
2022/08/01 11:41:30;;;;;;;3.10;1.03;;;;;;;31.10;34.40;96655.81;2062278;28;20493;-63
2022/08/01 11:42:39;;;;;;;2.23;1.57;;;;;;;31.19;33.52;96656.50;2064165;28;20461;-63
2022/08/01 11:44:01;;;;;;;3.30;2.03;;;;;;;31.40;33.34;96649.31;2064550;28;20432;-63
2022/08/01 11:45:02;;;;;;;2.47;1.50;;;;;;;31.73;32.11;96646.81;2064547;28;20424;-63
2022/08/01 11:46:04;;;;;;;2.00;1.30;;;;;;;31.44;33.39;96642.53;2064121;28;20471;-63
2022/08/01 11:47:11;;;;;;;3.97;1.40;;;;;;;31.93;33.42;96646.00;2064116;28;20424;-63
2022/08/01 11:48:20;;;;;;;2.53;1.43;;;;;;;31.97;34.10;96646.44;2063907;28;20432;-63
2022/08/01 11:49:36;;;;;;;5.13;1.47;;;;;;;32.01;34.74;96642.28;2064460;28;21253;-63
2022/08/01 11:50:40;;;;;;;4.30;1.43;;;;;;;31.96;34.39;96642.06;2063521;28;20432;-63
2022/08/01 11:51:42;;;;;;;2.00;1.27;;;;;;;31.58;34.91;96638.81;2064491;28;20877;-63
2022/08/01 11:52:45;;;;;;;5.20;1.47;;;;;;;31.00;35.96;96644.53;2063778;28;20475;-63
2022/08/01 11:53:47;;;;;;;2.80;1.47;;;;;;;30.67;36.30;96637.06;2062707;28;21090;-63
2022/08/01 11:54:53;;;;;;;3.10;1.23;;;;;;;30.92;35.76;96642.81;2064362;28;20547;-63
2022/08/01 11:55:54;;;;;;;1.90;1.17;;;;;;;31.46;34.97;96645.81;2064489;28;20435;-62
2022/08/01 11:57:01;;;;;;;2.93;1.50;;;;;;;31.41;34.98;96643.75;2063836;28;20428;-63
2022/08/01 11:58:07;;;;;;;4.07;1.70;;;;;;;31.69;34.53;96642.84;2063472;28;20439;-63
2022/08/01 11:59:23;;;;;;;4.33;1.43;;;;;;;31.64;35.02;96642.59;2064439;28;20432;-63
2022/08/01 12:00:24;;;;;;;2.33;1.40;;;;;;;31.96;34.18;96637.53;2064165;28;20428;-63
2022/08/01 12:01:28;;;;;;;2.57;1.17;;;;;;;32.54;33.43;96636.13;2064210;28;20478;-63
2022/08/01 12:02:33;;;;;;;3.80;1.33;;;;;;;32.76;32.95;96634.09;2063992;28;20467;-63
2022/08/01 12:03:35;;;;;;;2.20;1.20;;;;;;;32.59;33.69;96633.63;2064301;28;20432;-63
2022/08/01 12:04:47;;;;;;;2.60;1.47;;;;;;;32.32;33.95;96639.03;2063883;28;20848;-63
2022/08/01 12:05:48;;;;;;;3.40;1.37;;;;;;;32.38;34.29;96632.81;2064339;28;20467;-63
2022/08/01 12:06:50;;;;;;;2.10;1.33;;;;;;;32.08;34.95;96632.34;2064318;28;20467;-63
2022/08/01 12:07:55;;;;;;;4.77;1.57;;;;;;;31.43;35.44;96640.84;2064232;28;20472;-63
2022/08/01 12:09:14;;;;;;;1.57;1.23;;;;;;;32.52;33.82;96624.72;2063700;28;20424;-63
2022/08/01 12:10:18;;;;;;;2.50;1.50;;;;;;;33.25;32.50;96626.47;2061592;28;20424;-63
2022/08/01 12:11:20;;;;;;;2.50;1.40;;;;;;;33.16;32.10;96625.06;2063693;28;20428;-68
2022/08/01 12:12:22;;;;;;;7.30;1.60;;;;;;;33.24;32.36;96622.09;2063230;28;20994;-68
2022/08/01 12:13:23;;;;;;;3.93;1.20;;;;;;;33.93;31.34;96625.19;2065815;28;20986;-63
2022/08/01 12:14:25;;;;;;;1.53;1.10;;;;;;;34.40;30.43;96616.75;2065519;28;20428;-63
2022/08/01 12:15:31;;;;;;;2.43;1.50;;;;;;;33.56;30.91;96614.13;2064386;28;20432;-63
2022/08/01 12:16:32;;;;;;;1.70;1.20;;;;;;;33.13;31.56;96620.06;2064178;28;20912;-63
2022/08/01 12:17:40;;;;;;;6.67;1.63;;;;;;;33.30;31.62;96623.97;2062634;28;20453;-63
2022/08/01 12:18:59;;;;;;;2.40;1.50;;;;;;;32.52;32.95;96619.31;2063914;28;20432;-63
2022/08/01 12:20:01;;;;;;;1.30;0.90;;;;;;;33.27;31.81;96612.72;2064206;28;21100;-63
2022/08/01 12:21:04;;;;;;;2.70;1.53;;;;;;;33.19;31.69;96621.91;2063610;28;20428;-63
2022/08/01 12:22:11;;;;;;;2.30;1.37;;;;;;;32.87;31.77;96616.38;2063888;28;20439;-63
2022/08/01 12:23:15;;;;;;;4.50;1.53;;;;;;;32.36;32.23;96623.25;2064251;28;20903;-64
2022/08/01 12:24:22;;;;;;;17.00;8.57;;;;;;;31.59;33.30;96620.75;2064156;28;20439;-64
2022/08/01 12:25:23;;;;;;;3.60;2.40;;;;;;;31.17;34.66;96626.19;2063923;28;20435;-65
2022/08/01 12:26:39;;;;;;;5.23;3.23;;;;;;;31.25;35.21;96636.81;2064097;28;20425;-64
2022/08/01 12:27:43;;;;;;;3.77;2.13;;;;;;;30.60;36.03;96626.25;2063812;28;20470;-65
2022/08/01 12:28:44;;;;;;;3.10;1.77;;;;;;;30.25;37.02;96625.28;2063271;28;20440;-65
2022/08/01 12:29:46;;;;;;;1.53;0.97;;;;;;;30.17;36.69;96615.50;2063807;28;20463;-64
2022/08/01 12:30:49;;;;;;;3.17;1.10;;;;;;;30.08;36.98;96619.31;2063887;28;20440;-65
2022/08/01 12:31:51;;;;;;;4.03;1.70;;;;;;;30.02;37.37;96614.72;2064955;28;20432;-65
2022/08/01 12:32:53;;;;;;;3.07;1.50;;;;;;;30.03;37.35;96619.06;2064052;28;20447;-65
2022/08/01 12:33:55;;;;;;;2.97;1.10;;;;;;;30.49;36.62;96623.22;2064059;28;20424;-65
2022/08/01 12:35:01;;;;;;;3.77;1.13;;;;;;;31.14;35.63;96623.09;2062409;28;20440;-65
2022/08/01 12:36:03;;;;;;;3.90;1.43;;;;;;;31.28;35.25;96619.41;2064332;28;20432;-64
2022/08/01 12:37:04;;;;;;;1.80;1.10;;;;;;;32.14;34.00;96611.78;2063868;28;20815;-64
2022/08/01 12:38:17;;;;;;;3.30;1.20;;;;;;;32.72;32.96;96617.41;2064175;28;20900;-64
2022/08/01 12:39:19;;;;;;;3.93;1.40;;;;;;;32.92;32.77;96613.88;2063516;28;20444;-64
2022/08/01 12:40:23;;;;;;;20.37;13.23;;;;;;;32.58;32.63;96606.81;2063195;28;20786;-63
2022/08/01 12:41:25;;;;;;;7.13;2.40;;;;;;;32.87;32.23;96608.28;2062591;28;20432;-64
2022/08/01 12:42:26;;;;;;;2.93;1.10;;;;;;;32.93;32.23;96610.13;2063015;28;20548;-64
2022/08/01 12:43:31;;;;;;;2.60;1.50;;;;;;;33.00;31.89;96610.94;2064132;28;20816;-64
2022/08/01 12:44:34;;;;;;;2.93;1.03;;;;;;;32.39;32.55;96612.88;2064039;28;20435;-64
2022/08/01 12:45:44;;;;;;;3.27;1.17;;;;;;;32.17;32.73;96609.50;2063963;28;20915;-65
2022/08/01 12:46:58;;;;;;;2.00;1.13;;;;;;;32.57;31.98;96611.41;2063286;28;20538;-64
2022/08/01 12:48:01;;;;;;;5.30;1.87;;;;;;;32.62;31.74;96606.22;2064025;28;20439;-64
2022/08/01 12:49:03;;;;;;;2.47;1.33;;;;;;;32.57;32.05;96606.00;2063892;28;20439;-64
2022/08/01 12:50:15;;;;;;;6.77;1.50;;;;;;;33.42;31.41;96594.41;2063050;28;20447;-64
2022/08/01 12:51:16;;;;;;;4.60;1.83;;;;;;;33.59;31.33;96607.44;2063441;28;21127;-64
2022/08/01 12:52:22;;;;;;;1.90;0.93;;;;;;;34.01;30.53;96608.66;2063510;28;20456;-65
2022/08/01 12:53:27;;;;;;;4.00;1.40;;;;;;;34.24;30.75;96604.53;2062816;28;20478;-64
2022/08/01 12:55:08;;;;;;;3.20;0.90;;;;;;;33.46;31.86;96611.84;2063461;28;20467;-64
2022/08/01 12:56:10;;;;;;;2.93;1.40;;;;;;;33.90;31.53;96608.53;2063942;28;20428;-64
2022/08/01 12:57:23;;;;;;;1.60;1.30;;;;;;;34.26;31.14;96605.16;2063589;28;21199;-65
2022/08/01 12:58:33;;;;;;;1.70;1.00;;;;;;;34.06;30.99;96609.91;2063663;28;20427;-64
2022/08/01 12:59:35;;;;;;;2.20;1.10;;;;;;;33.62;31.34;96596.16;2063498;28;20467;-64
2022/08/01 13:00:39;;;;;;;2.33;1.53;;;;;;;33.86;30.99;96605.44;2063834;28;20898;-64
2022/08/01 13:01:41;;;;;;;2.50;1.70;;;;;;;33.71;30.96;96608.41;2064302;28;20791;-64
2022/08/01 13:02:45;;;;;;;1.73;1.20;;;;;;;34.08;31.02;96605.94;2063514;28;21019;-64
2022/08/01 13:04:00;;;;;;;1.60;1.20;;;;;;;34.33;30.23;96611.41;2063925;28;20428;-64
2022/08/01 13:05:03;;;;;;;1.97;1.10;;;;;;;33.96;30.38;96611.19;2063875;28;20438;-64
2022/08/01 13:06:14;;;;;;;2.13;1.23;;;;;;;32.96;31.34;96606.16;2063715;28;20464;-64
2022/08/01 13:07:16;;;;;;;2.00;1.17;;;;;;;31.93;32.88;96608.22;2062639;28;20452;-64
2022/08/01 13:08:19;;;;;;;1.93;1.30;;;;;;;31.94;33.16;96614.47;2063929;28;20946;-64
2022/08/01 13:09:21;;;;;;;2.33;1.53;;;;;;;31.91;33.73;96608.44;2063017;28;20451;-64
2022/08/01 13:10:28;;;;;;;5.13;0.90;;;;;;;31.17;35.58;96601.09;2063867;28;20463;-64
2022/08/01 13:11:31;;;;;;;3.20;1.70;;;;;;;31.29;35.42;96604.91;2062385;28;20432;-64
2022/08/01 13:12:33;;;;;;;2.27;1.40;;;;;;;31.24;34.92;96597.41;2062838;28;20460;-64
2022/08/01 13:13:41;;;;;;;2.17;1.00;;;;;;;31.56;34.54;96607.69;2063875;28;20432;-64